Time;durP1;ratioP1;P1;durP2;ratioP2;P2;SDS_P1;SDS_P2;PMS_P1;PMS_P2;Temp;Humidity;BMP_temperature;BMP_pressure;BME280_temperature;BME280_humidity;BME280_pressure;Samples;Min_cycle;Max_cycle;Signal;HPM_P1;HPM_P2
2021/08/24 00:02:48;;;;;;;3.70;2.78;;;;;;;17.89;58.50;102651.13;5989406;29;20240;-49
2021/08/24 00:06:09;;;;;;;3.67;2.85;;;;;;;17.80;58.73;102648.56;5994535;29;20558;-48
2021/08/24 00:09:30;;;;;;;3.17;2.40;;;;;;;17.77;58.61;102647.72;5994106;29;20241;-52
2021/08/24 00:12:53;;;;;;;6.25;3.50;;;;;;;17.50;59.45;102652.34;5996631;29;20337;-48
2021/08/24 00:16:17;;;;;;;3.40;2.72;;;;;;;17.57;58.93;102653.19;5996050;29;20262;-50
2021/08/24 00:19:38;;;;;;;3.88;3.47;;;;;;;17.58;59.19;102660.19;5995738;29;20248;-49
2021/08/24 00:23:01;;;;;;;4.87;3.33;;;;;;;17.50;59.09;102661.13;5995546;29;20268;-50
2021/08/24 00:26:22;;;;;;;3.03;2.75;;;;;;;17.26;59.88;102661.34;5998515;29;20254;-50
2021/08/24 00:29:44;;;;;;;2.83;2.53;;;;;;;17.46;59.22;102666.44;6009579;29;20380;-50
2021/08/24 00:33:06;;;;;;;2.72;2.53;;;;;;;17.26;59.65;102671.88;5999471;29;20247;-49
2021/08/24 00:36:27;;;;;;;3.77;2.73;;;;;;;17.10;60.29;102669.34;5997085;29;20227;-51
2021/08/24 00:39:48;;;;;;;3.30;2.67;;;;;;;17.09;60.45;102674.63;5992009;29;20247;-54
2021/08/24 00:43:11;;;;;;;3.13;2.83;;;;;;;17.08;60.36;102673.75;5991710;29;20240;-50
2021/08/24 00:46:37;;;;;;;2.93;2.53;;;;;;;17.09;60.46;102680.75;5991622;29;20235;-51
2021/08/24 00:50:06;;;;;;;3.63;2.47;;;;;;;17.07;60.32;102679.88;5995584;29;20231;-47
2021/08/24 00:53:32;;;;;;;3.53;3.07;;;;;;;17.21;60.00;102684.19;6000450;29;20244;-49
2021/08/24 00:56:59;;;;;;;4.33;2.63;;;;;;;17.00;60.38;102675.56;5993671;29;20266;-46
2021/08/24 01:00:20;;;;;;;6.00;3.03;;;;;;;16.91;61.01;102683.50;5994860;29;20239;-51
2021/08/24 01:03:46;;;;;;;3.97;3.57;;;;;;;16.77;61.94;102682.66;5988171;29;20230;-51
2021/08/24 01:07:17;;;;;;;3.10;2.63;;;;;;;16.59;62.24;102684.50;6006492;29;20235;-51
2021/08/24 01:10:42;;;;;;;3.47;2.50;;;;;;;16.80;61.65;102682.66;6000991;29;20246;-53
2021/08/24 01:14:17;;;;;;;3.63;3.33;;;;;;;16.64;61.95;102690.63;5998138;29;20748;-52
2021/08/24 01:17:43;;;;;;;3.60;2.80;;;;;;;16.73;61.77;102685.31;6008617;29;20239;-49
2021/08/24 01:21:24;;;;;;;2.93;2.70;;;;;;;16.72;61.46;102680.94;6005398;29;20262;-50
2021/08/24 01:24:50;;;;;;;3.13;2.83;;;;;;;16.78;61.41;102684.44;5998072;29;20251;-51
2021/08/24 01:28:17;;;;;;;2.90;2.33;;;;;;;16.78;61.45;102690.56;6000607;29;20231;-48
2021/08/24 01:31:55;;;;;;;3.30;2.97;;;;;;;16.73;61.69;102690.59;6006069;29;20314;-49
2021/08/24 01:35:42;;;;;;;3.37;3.03;;;;;;;16.90;61.19;102701.06;5997354;29;20224;-48
2021/08/24 01:39:08;;;;;;;2.28;2.08;;;;;;;16.94;60.61;102691.38;6009539;29;20242;-54
2021/08/24 01:42:32;;;;;;;2.75;2.55;;;;;;;16.72;61.57;102698.47;5996755;29;20235;-49
2021/08/24 01:46:02;;;;;;;3.00;2.70;;;;;;;16.85;60.97;102694.06;5999199;29;20273;-51
2021/08/24 01:49:32;;;;;;;4.72;2.92;;;;;;;16.74;61.18;102700.22;6002427;29;20231;-51
2021/08/24 01:53:06;;;;;;;3.20;2.50;;;;;;;16.73;61.29;102697.63;6002978;29;20238;-46
2021/08/24 01:56:35;;;;;;;4.73;3.17;;;;;;;16.59;61.69;102702.03;6000187;29;20622;-50
2021/08/24 02:00:01;;;;;;;3.50;3.20;;;;;;;16.49;61.97;102703.84;5997424;29;20232;-48
2021/08/24 02:03:32;;;;;;;3.17;2.87;;;;;;;16.47;62.29;102701.22;6008840;29;20322;-49
2021/08/24 02:06:53;;;;;;;3.57;2.90;;;;;;;16.61;61.64;102705.53;5993556;29;20227;-50
2021/08/24 02:10:18;;;;;;;4.20;3.40;;;;;;;16.47;62.57;102706.47;5994865;29;20613;-50
2021/08/24 02:13:44;;;;;;;3.85;2.85;;;;;;;16.22;63.44;102710.06;6002117;29;20236;-50
2021/08/24 02:17:07;;;;;;;3.80;2.42;;;;;;;16.13;63.76;102703.09;5991722;29;20338;-50
2021/08/24 02:20:34;;;;;;;4.47;2.73;;;;;;;16.22;63.51;102705.66;5991815;29;20556;-49
2021/08/24 02:23:59;;;;;;;5.23;3.57;;;;;;;16.26;63.63;102699.53;6013226;29;20235;-50
2021/08/24 02:27:26;;;;;;;3.07;2.80;;;;;;;16.17;63.99;102707.44;6009142;29;20235;-51
2021/08/24 02:30:53;;;;;;;5.17;2.90;;;;;;;16.26;63.75;102707.41;6001339;29;20332;-50
2021/08/24 02:34:21;;;;;;;3.37;3.07;;;;;;;16.30;63.65;102706.53;6004548;29;20243;-52
2021/08/24 02:37:49;;;;;;;3.23;2.53;;;;;;;16.11;64.34;102703.09;6005524;29;20234;-48
2021/08/24 02:41:14;;;;;;;3.43;2.60;;;;;;;16.12;64.55;102698.69;6002865;29;20613;-50
2021/08/24 02:44:39;;;;;;;3.90;2.73;;;;;;;16.16;64.35;102697.81;5991228;29;20231;-46
2021/08/24 02:48:06;;;;;;;2.73;2.27;;;;;;;16.09;64.72;102704.84;6004453;29;20247;-46
2021/08/24 02:51:28;;;;;;;3.83;2.40;;;;;;;16.13;64.55;102701.31;6000000;29;20235;-47
2021/08/24 02:54:52;;;;;;;2.63;2.17;;;;;;;16.23;64.29;102712.69;6005270;29;20282;-51
2021/08/24 02:58:13;;;;;;;3.90;2.73;;;;;;;16.13;64.54;102710.97;6010717;29;20247;-48
2021/08/24 03:01:35;;;;;;;3.13;2.80;;;;;;;16.17;64.21;102709.19;5994192;29;20243;-52
2021/08/24 03:04:58;;;;;;;5.47;3.00;;;;;;;15.87;65.24;102717.13;6002626;29;20254;-54
2021/08/24 03:08:19;;;;;;;3.33;3.03;;;;;;;15.90;65.26;102725.00;6003231;29;20228;-54
2021/08/24 03:11:43;;;;;;;4.80;3.50;;;;;;;15.79;65.51;102710.13;5999633;29;20378;-49
2021/08/24 03:15:12;;;;;;;3.67;3.20;;;;;;;15.81;65.40;102717.13;5995761;29;20235;-46
2021/08/24 03:18:36;;;;;;;4.00;3.30;;;;;;;15.54;66.59;102721.47;6003562;29;20281;-50
2021/08/24 03:22:01;;;;;;;4.83;3.60;;;;;;;15.56;66.58;102718.84;6005142;29;20321;-51
2021/08/24 03:25:23;;;;;;;4.23;3.03;;;;;;;15.63;66.21;102722.38;6001334;29;20336;-50
2021/08/24 03:28:44;;;;;;;4.37;3.97;;;;;;;15.58;66.27;102721.47;6003312;29;20267;-49
2021/08/24 03:32:07;;;;;;;4.27;3.87;;;;;;;15.47;66.75;102719.75;5998670;29;20514;-49
2021/08/24 03:35:29;;;;;;;4.47;4.07;;;;;;;15.34;67.29;102710.09;5994740;29;20235;-50
2021/08/24 03:38:51;;;;;;;6.73;4.47;;;;;;;15.29;67.62;102715.31;5993990;29;20227;-50
2021/08/24 03:42:12;;;;;;;6.47;4.23;;;;;;;15.24;68.14;102726.72;6008906;29;20631;-46
2021/08/24 03:45:33;;;;;;;4.87;4.27;;;;;;;15.43;67.55;102728.47;5991710;29;20288;-50
2021/08/24 03:48:54;;;;;;;4.60;3.57;;;;;;;15.52;67.14;102731.09;5987249;29;20921;-48
2021/08/24 03:52:15;;;;;;;4.80;4.30;;;;;;;15.56;66.69;102724.97;5997471;29;20243;-51
2021/08/24 03:55:37;;;;;;;3.50;3.20;;;;;;;15.60;66.85;102725.84;6010109;29;20235;-50
2021/08/24 03:58:58;;;;;;;4.93;3.77;;;;;;;15.70;66.20;102732.88;5992566;29;20219;-52
2021/08/24 04:02:18;;;;;;;4.30;3.90;;;;;;;15.50;67.05;102745.09;5991125;29;20611;-52
2021/08/24 04:05:39;;;;;;;4.70;4.10;;;;;;;15.39;67.44;102736.34;5998759;29;20239;-53
2021/08/24 04:09:01;;;;;;;8.53;5.17;;;;;;;15.38;67.21;102743.34;6002416;29;20334;-51
2021/08/24 04:12:24;;;;;;;5.63;5.13;;;;;;;15.32;67.55;102741.59;5991933;29;20583;-52
2021/08/24 04:15:46;;;;;;;6.70;5.13;;;;;;;15.26;67.96;102751.22;5987908;29;20678;-53
2021/08/24 04:19:07;;;;;;;5.97;5.17;;;;;;;15.10;68.15;102753.78;5994607;29;20240;-52
2021/08/24 04:22:28;;;;;;;5.73;4.57;;;;;;;15.31;67.30;102754.69;6008760;29;20235;-52
2021/08/24 04:25:48;;;;;;;5.73;4.93;;;;;;;15.03;68.54;102754.63;5997514;29;20638;-49
2021/08/24 04:29:11;;;;;;;5.87;5.33;;;;;;;14.97;68.63;102752.00;5996803;29;20861;-50
2021/08/24 04:32:35;;;;;;;5.57;5.00;;;;;;;15.15;68.45;102746.78;6000025;29;23027;-49
2021/08/24 04:35:56;;;;;;;6.23;5.63;;;;;;;15.50;66.93;102756.47;5996691;29;20609;-49
2021/08/24 04:39:18;;;;;;;7.07;6.00;;;;;;;15.58;66.70;102753.00;5995441;29;20278;-54
2021/08/24 04:42:39;;;;;;;6.00;5.40;;;;;;;15.55;66.71;102764.38;6007080;29;20503;-48
2021/08/24 04:46:01;;;;;;;7.80;7.00;;;;;;;15.42;66.90;102763.47;5985247;29;20240;-49
2021/08/24 04:49:23;;;;;;;5.93;5.23;;;;;;;15.42;67.37;102773.97;5997940;29;20231;-52
2021/08/24 04:52:44;;;;;;;6.83;6.10;;;;;;;15.75;66.26;102765.28;5992256;29;20243;-53
2021/08/24 04:56:05;;;;;;;6.70;5.73;;;;;;;15.68;66.63;102770.50;6006495;29;20258;-52
2021/08/24 04:59:26;;;;;;;6.93;6.20;;;;;;;15.56;67.30;102774.84;6008447;29;20553;-49
2021/08/24 05:02:48;;;;;;;10.70;7.47;;;;;;;15.58;67.24;102771.38;6003651;29;20243;-49
2021/08/24 05:06:09;;;;;;;5.93;5.43;;;;;;;15.65;67.17;102779.25;5999033;29;20239;-51
2021/08/24 05:09:30;;;;;;;7.27;6.67;;;;;;;15.78;66.96;102776.66;6006758;29;20341;-49
2021/08/24 05:12:51;;;;;;;7.60;6.90;;;;;;;15.90;66.28;102785.44;5994006;29;20239;-54
2021/08/24 05:16:13;;;;;;;7.97;6.97;;;;;;;16.11;65.71;102781.94;5996951;29;20236;-53
2021/08/24 05:19:35;;;;;;;7.30;6.70;;;;;;;16.24;65.19;102777.50;5999114;29;20553;-47
2021/08/24 05:22:57;;;;;;;8.23;7.43;;;;;;;16.30;65.21;102790.69;6003064;29;20330;-47
2021/08/24 05:26:22;;;;;;;8.10;7.30;;;;;;;16.38;64.75;102785.41;5994489;29;20776;-52
2021/08/24 05:29:43;;;;;;;7.93;7.23;;;;;;;16.64;63.74;102790.59;6002881;29;20235;-51
2021/08/24 05:33:04;;;;;;;8.00;7.20;;;;;;;16.62;64.28;102797.59;5996947;29;20236;-52
2021/08/24 05:36:26;;;;;;;7.47;6.70;;;;;;;16.59;64.78;102807.25;6001685;29;20235;-51
2021/08/24 05:39:47;;;;;;;7.60;6.83;;;;;;;16.69;64.15;102807.22;6000680;29;20231;-52
2021/08/24 05:43:08;;;;;;;8.03;7.20;;;;;;;16.73;64.48;102798.44;5995808;29;20263;-52
2021/08/24 05:46:30;;;;;;;7.73;6.60;;;;;;;16.68;65.09;102812.50;5991497;29;20422;-51
2021/08/24 05:49:51;;;;;;;8.93;8.03;;;;;;;16.64;65.09;102803.72;6000242;29;20239;-49
2021/08/24 05:53:13;;;;;;;7.63;7.00;;;;;;;16.87;64.19;102811.59;6001555;29;20235;-50
2021/08/24 05:56:34;;;;;;;8.70;7.00;;;;;;;16.96;64.20;102815.91;5995540;29;20237;-49
2021/08/24 05:59:55;;;;;;;7.53;6.83;;;;;;;17.03;63.71;102820.28;6002338;29;20985;-50
2021/08/24 06:03:20;;;;;;;7.93;7.13;;;;;;;17.07;63.70;102824.66;5992544;29;20239;-50
2021/08/24 06:06:43;;;;;;;8.57;6.17;;;;;;;17.25;63.58;102812.28;5990973;29;20289;-52
2021/08/24 06:10:10;;;;;;;6.83;6.17;;;;;;;17.32;63.08;102811.38;5996729;29;20244;-54
2021/08/24 06:13:32;;;;;;;7.27;6.57;;;;;;;17.37;62.89;102809.59;6005558;29;20232;-53
2021/08/24 06:16:57;;;;;;;6.57;5.87;;;;;;;17.39;62.72;102820.09;5999436;29;20235;-51
2021/08/24 06:20:17;;;;;;;6.00;5.50;;;;;;;17.52;62.94;102817.41;6008776;29;20234;-48
2021/08/24 06:23:39;;;;;;;8.37;5.87;;;;;;;17.74;62.07;102812.00;6006076;29;20251;-53
2021/08/24 06:27:01;;;;;;;7.03;5.50;;;;;;;17.79;61.42;102812.81;6003553;29;20231;-52
2021/08/24 06:30:22;;;;;;;6.37;5.77;;;;;;;17.89;61.21;102817.19;5997264;29;20231;-53
2021/08/24 06:33:43;;;;;;;5.57;5.03;;;;;;;17.89;61.60;102824.19;5993736;29;20322;-54
2021/08/24 06:37:04;;;;;;;7.03;5.77;;;;;;;17.79;61.54;102818.09;6000265;29;20235;-50
2021/08/24 06:40:25;;;;;;;5.73;4.37;;;;;;;17.88;60.26;102822.47;5994512;29;20487;-51
2021/08/24 06:43:48;;;;;;;4.77;4.07;;;;;;;17.97;60.30;102830.31;6000256;29;20274;-53
2021/08/24 06:47:09;;;;;;;4.73;3.77;;;;;;;18.04;59.59;102837.25;6000304;29;20242;-51
2021/08/24 06:50:31;;;;;;;5.57;4.10;;;;;;;18.32;58.71;102836.13;6000936;29;20247;-54
2021/08/24 06:53:52;;;;;;;5.53;3.57;;;;;;;18.27;58.45;102834.41;6001805;29;20267;-51
2021/08/24 06:57:13;;;;;;;5.03;3.37;;;;;;;18.42;57.73;102830.75;5998216;29;20228;-46
2021/08/24 07:00:37;;;;;;;3.87;3.57;;;;;;;18.48;57.71;102828.06;6000142;29;20622;-49
2021/08/24 07:03:58;;;;;;;3.97;3.57;;;;;;;18.58;57.96;102834.13;5999629;29;20330;-50
2021/08/24 07:07:19;;;;;;;4.87;2.97;;;;;;;18.53;57.99;102845.59;5996084;29;21043;-52
2021/08/24 07:10:40;;;;;;;5.73;2.80;;;;;;;18.78;56.94;102846.22;6002896;29;20270;-49
2021/08/24 07:14:02;;;;;;;4.97;3.03;;;;;;;18.89;56.46;102852.28;5991513;29;20235;-52
2021/08/24 07:17:25;;;;;;;3.42;3.05;;;;;;;18.93;56.51;102854.00;6001318;29;20231;-49
2021/08/24 07:20:49;;;;;;;4.35;3.40;;;;;;;19.01;56.14;102852.13;6009143;29;20246;-48
2021/08/24 07:24:10;;;;;;;2.90;2.60;;;;;;;19.14;55.58;102854.63;5999946;29;20251;-50
2021/08/24 07:27:31;;;;;;;3.10;2.70;;;;;;;18.94;56.23;102866.31;6004833;29;20840;-55
2021/08/24 07:30:52;;;;;;;2.80;2.50;;;;;;;19.30;55.49;102864.09;6003838;29;20266;-51
2021/08/24 07:34:15;;;;;;;2.58;2.38;;;;;;;18.98;56.15;102865.38;5999232;29;20239;-50
2021/08/24 07:37:37;;;;;;;4.35;2.95;;;;;;;19.21;56.10;102873.03;5995586;29;20238;-50
2021/08/24 07:40:58;;;;;;;3.45;2.60;;;;;;;19.34;56.22;102876.38;5997513;29;20662;-49
2021/08/24 07:44:23;;;;;;;3.38;3.08;;;;;;;19.52;55.90;102874.38;5988110;29;20247;-48
2021/08/24 07:47:44;;;;;;;2.97;2.67;;;;;;;19.63;54.81;102865.38;5989726;29;20625;-52
2021/08/24 07:51:06;;;;;;;2.60;2.40;;;;;;;19.96;54.13;102863.16;6004190;29;20239;-51
2021/08/24 07:54:27;;;;;;;3.03;2.20;;;;;;;19.99;53.93;102867.53;5990997;29;20235;-52
2021/08/24 07:57:48;;;;;;;3.80;2.20;;;;;;;20.22;53.62;102870.69;5997950;29;20227;-48
2021/08/24 08:01:10;;;;;;;2.30;2.10;;;;;;;20.03;52.92;102874.53;5999703;29;20239;-49
2021/08/24 08:04:31;;;;;;;3.38;2.10;;;;;;;20.33;52.69;102882.84;5994634;29;20243;-50
2021/08/24 08:07:55;;;;;;;2.85;1.95;;;;;;;20.13;52.42;102881.41;5995150;29;20235;-49
2021/08/24 08:11:16;;;;;;;2.35;1.70;;;;;;;20.46;51.76;102881.72;6002459;29;20247;-48
2021/08/24 08:14:37;;;;;;;4.28;2.20;;;;;;;20.37;52.27;102879.25;5997998;29;20544;-47
2021/08/24 08:17:58;;;;;;;2.75;2.40;;;;;;;20.62;50.19;102880.56;5999623;29;20254;-49
2021/08/24 08:21:20;;;;;;;3.03;2.47;;;;;;;20.69;49.10;102880.47;6018029;29;20238;-52
2021/08/24 08:24:43;;;;;;;3.38;2.20;;;;;;;21.07;48.43;102879.69;5999711;29;20333;-48
2021/08/24 08:28:04;;;;;;;3.13;2.78;;;;;;;21.34;46.92;102880.03;5988122;29;20250;-51
2021/08/24 08:31:25;;;;;;;3.15;2.55;;;;;;;20.89;47.79;102873.00;5987306;29;20239;-50
2021/08/24 08:34:46;;;;;;;3.80;2.67;;;;;;;21.17;46.34;102883.03;6001107;29;20655;-53
2021/08/24 08:38:08;;;;;;;2.70;2.13;;;;;;;21.17;46.08;102883.03;5992656;29;20247;-50
2021/08/24 08:41:34;;;;;;;2.10;1.90;;;;;;;21.17;46.52;102883.03;6001298;29;20227;-51
2021/08/24 08:45:00;;;;;;;2.63;2.42;;;;;;;21.44;45.88;102876.28;5996955;29;20250;-53
2021/08/24 08:48:47;;;;;;;2.67;2.40;;;;;;;21.37;46.12;102880.84;5999927;29;20238;-48
2021/08/24 08:52:20;;;;;;;5.13;2.47;;;;;;;21.47;46.02;102885.97;5989987;29;20548;-49
2021/08/24 08:55:46;;;;;;;3.78;2.20;;;;;;;21.90;45.07;102882.31;6003739;29;20275;-53
2021/08/24 08:59:13;;;;;;;2.63;2.42;;;;;;;22.03;43.23;102887.28;6000087;29;20321;-50
2021/08/24 09:02:42;;;;;;;2.97;2.45;;;;;;;21.87;44.22;102875.31;5998019;29;20242;-53
2021/08/24 09:06:03;;;;;;;2.20;2.00;;;;;;;22.33;43.64;102878.63;5987750;29;20231;-49
2021/08/24 09:09:25;;;;;;;2.58;2.03;;;;;;;22.18;43.23;102870.13;5997343;29;20248;-47
2021/08/24 09:12:53;;;;;;;2.33;2.13;;;;;;;22.39;43.22;102874.03;6000698;29;20243;-51
2021/08/24 09:16:26;;;;;;;4.32;2.35;;;;;;;22.45;42.60;102878.31;5992806;29;20630;-47
2021/08/24 09:19:54;;;;;;;3.03;2.13;;;;;;;22.55;42.22;102877.16;5996309;29;20235;-49
2021/08/24 09:23:14;;;;;;;5.35;2.90;;;;;;;22.48;41.48;102883.53;5988925;29;20248;-46
2021/08/24 09:26:51;;;;;;;3.03;2.72;;;;;;;22.60;41.16;102885.88;6000452;29;20243;-48
2021/08/24 09:30:13;;;;;;;3.92;2.53;;;;;;;22.96;41.62;102880.44;5995555;29;20570;-52
2021/08/24 09:33:36;;;;;;;2.85;2.17;;;;;;;22.76;41.21;102880.13;5992799;29;20239;-49
2021/08/24 09:36:57;;;;;;;3.83;2.65;;;;;;;22.72;41.23;102882.00;5992630;29;20315;-50
2021/08/24 09:40:34;;;;;;;3.22;2.53;;;;;;;22.94;41.39;102882.28;6005536;29;20235;-53
2021/08/24 09:43:57;;;;;;;4.75;2.53;;;;;;;22.81;39.32;102878.22;6008614;29;20251;-51
2021/08/24 09:47:21;;;;;;;3.55;3.13;;;;;;;23.29;39.63;102882.19;5994449;29;20284;-54
2021/08/24 09:50:45;;;;;;;3.80;2.40;;;;;;;23.46;39.45;102876.34;6009365;29;20259;-52
2021/08/24 09:54:14;;;;;;;2.30;2.10;;;;;;;23.19;39.94;102876.28;6007508;29;20228;-49
2021/08/24 09:57:39;;;;;;;2.20;1.95;;;;;;;23.38;39.03;102877.47;6000152;29;20711;-51
2021/08/24 10:01:06;;;;;;;3.35;2.85;;;;;;;23.33;39.13;102878.53;5997176;29;20235;-50
2021/08/24 10:04:27;;;;;;;2.15;1.90;;;;;;;23.64;39.19;102867.81;6002922;29;20235;-47
2021/08/24 10:07:51;;;;;;;3.05;2.67;;;;;;;23.93;37.68;102861.56;5998621;29;20609;-54
2021/08/24 10:11:15;;;;;;;3.05;2.58;;;;;;;23.91;38.19;102870.53;5995826;29;20231;-50
2021/08/24 10:14:36;;;;;;;3.40;2.80;;;;;;;23.06;37.65;102867.78;6000432;29;20336;-50
2021/08/24 10:18:04;;;;;;;3.70;2.83;;;;;;;23.87;37.60;102861.78;5996910;29;20334;-48
2021/08/24 10:21:34;;;;;;;3.33;2.45;;;;;;;23.68;37.98;102855.28;6005577;29;20582;-47
2021/08/24 10:25:00;;;;;;;5.85;3.40;;;;;;;23.76;37.84;102851.44;6001868;29;20238;-51
2021/08/24 10:28:25;;;;;;;4.40;3.00;;;;;;;23.67;36.87;102849.09;6005634;29;20231;-48
2021/08/24 10:31:52;;;;;;;2.58;2.38;;;;;;;23.67;36.97;102851.75;6001131;29;20337;-49
2021/08/24 10:35:17;;;;;;;2.80;2.17;;;;;;;24.23;36.95;102855.25;5997039;29;20243;-50
2021/08/24 10:38:43;;;;;;;4.75;2.78;;;;;;;24.45;35.98;102842.94;5995915;29;20685;-50
2021/08/24 10:42:09;;;;;;;3.00;2.70;;;;;;;24.52;33.69;102846.28;6005219;29;20242;-52
2021/08/24 10:45:35;;;;;;;3.08;2.78;;;;;;;24.76;34.15;102844.53;6000594;29;20247;-53
2021/08/24 10:48:57;;;;;;;2.65;2.42;;;;;;;25.06;34.67;102846.94;5994060;29;20224;-53
2021/08/24 10:52:30;;;;;;;2.30;2.10;;;;;;;25.34;34.10;102841.47;6000472;29;20239;-51
2021/08/24 10:56:00;;;;;;;4.90;2.53;;;;;;;25.30;34.34;102845.16;5994230;29;20247;-52
2021/08/24 10:59:35;;;;;;;2.97;2.67;;;;;;;25.13;34.15;102840.47;6001052;29;20239;-47
2021/08/24 11:03:07;;;;;;;3.40;2.47;;;;;;;25.34;32.31;102836.97;6001808;29;20326;-49
2021/08/24 11:06:37;;;;;;;4.63;2.72;;;;;;;26.12;31.20;102835.56;5993509;29;20243;-49
2021/08/24 11:10:04;;;;;;;4.78;3.30;;;;;;;25.77;32.14;102847.72;6004968;29;20617;-48
2021/08/24 11:13:36;;;;;;;3.38;2.78;;;;;;;25.50;31.44;102839.91;5990270;29;20609;-51
2021/08/24 11:17:09;;;;;;;3.72;2.67;;;;;;;25.70;31.94;102844.41;5996700;29;20886;-50
2021/08/24 11:20:40;;;;;;;4.32;2.88;;;;;;;25.83;32.82;102849.25;5998813;29;20230;-50
2021/08/24 11:24:17;;;;;;;4.32;2.88;;;;;;;25.70;33.37;102848.88;5999862;29;20239;-53
2021/08/24 11:27:45;;;;;;;4.47;3.90;;;;;;;25.27;33.71;102843.47;6002362;29;20314;-49
2021/08/24 11:31:12;;;;;;;2.70;2.50;;;;;;;25.57;33.21;102843.19;5990806;29;20243;-49
2021/08/24 11:34:39;;;;;;;3.35;3.05;;;;;;;25.56;33.63;102837.94;5993441;29;20227;-49
2021/08/24 11:38:04;;;;;;;3.63;3.30;;;;;;;25.52;33.66;102839.84;5999340;29;20236;-54
2021/08/24 11:41:27;;;;;;;3.50;2.67;;;;;;;25.83;33.38;102838.59;5994513;29;20244;-51
2021/08/24 11:44:52;;;;;;;5.63;3.38;;;;;;;24.98;34.18;102838.38;6006741;29;20239;-49
2021/08/24 11:48:20;;;;;;;5.10;2.90;;;;;;;27.24;31.28;102840.38;6002205;29;20247;-52
2021/08/24 11:51:50;;;;;;;3.47;2.55;;;;;;;30.49;26.03;102833.41;5998930;29;20791;-53
2021/08/24 11:55:17;;;;;;;2.72;2.50;;;;;;;32.92;23.47;102822.53;6011006;29;20243;-54
2021/08/24 11:58:45;;;;;;;4.25;2.60;;;;;;;32.48;23.95;102818.47;5993198;29;20255;-53
2021/08/24 12:02:07;;;;;;;4.85;3.15;;;;;;;28.47;28.88;102831.50;5996603;29;20243;-53
2021/08/24 12:05:34;;;;;;;2.47;2.28;;;;;;;26.36;31.66;102826.56;6001984;29;20246;-51
2021/08/24 12:08:58;;;;;;;3.55;3.00;;;;;;;25.63;32.86;102828.72;5996103;29;20657;-50
2021/08/24 12:12:50;;;;;;;3.75;3.00;;;;;;;31.22;25.90;102816.28;5991780;29;20236;-51
2021/08/24 12:16:30;;;;;;;3.10;2.58;;;;;;;32.61;23.41;102813.13;5991689;29;20259;-50
2021/08/24 12:19:56;;;;;;;3.40;2.45;;;;;;;28.65;27.72;102815.41;6002898;29;20239;-51
2021/08/24 12:23:33;;;;;;;3.90;3.55;;;;;;;27.00;30.72;102822.78;5997037;29;20257;-50
2021/08/24 12:27:33;;;;;;;3.63;3.25;;;;;;;28.96;27.38;102811.91;5988935;29;20247;-51
2021/08/24 12:31:21;;;;;;;3.70;3.40;;;;;;;29.13;27.36;102808.31;5997814;29;20314;-49
2021/08/24 12:34:53;;;;;;;3.03;2.22;;;;;;;27.50;31.28;102811.47;5994374;29;20228;-51
2021/08/24 12:38:42;;;;;;;4.28;3.08;;;;;;;27.56;31.16;102804.97;5995375;29;20681;-48
2021/08/24 12:42:24;;;;;;;3.20;2.25;;;;;;;29.14;28.17;102809.16;5999290;29;20231;-52
2021/08/24 12:45:45;;;;;;;2.92;2.50;;;;;;;26.03;32.27;102814.59;5994975;29;20239;-50
2021/08/24 12:49:40;;;;;;;2.72;2.17;;;;;;;26.69;31.80;102809.03;5985999;29;20498;-51
2021/08/24 12:53:39;;;;;;;3.33;2.05;;;;;;;33.39;23.03;102797.56;5994932;29;20247;-50
2021/08/24 12:57:26;;;;;;;3.00;2.78;;;;;;;35.23;19.36;102792.94;5990946;29;20231;-49
2021/08/24 13:01:11;;;;;;;2.45;2.20;;;;;;;36.06;18.48;102785.84;5995341;29;20236;-53
2021/08/24 13:04:34;;;;;;;3.78;2.03;;;;;;;37.68;18.05;102785.69;5997016;29;20239;-49
2021/08/24 13:08:08;;;;;;;2.28;2.08;;;;;;;37.99;17.79;102785.47;5999426;29;20499;-54
2021/08/24 13:11:40;;;;;;;3.25;2.83;;;;;;;36.66;16.30;102772.41;5996784;29;20231;-47
2021/08/24 13:15:07;;;;;;;3.50;2.70;;;;;;;35.09;18.35;102772.38;6000939;29;20463;-52
2021/08/24 13:18:31;;;;;;;5.22;2.78;;;;;;;37.56;17.81;102770.50;5997534;29;20537;-52
2021/08/24 13:21:57;;;;;;;3.15;2.85;;;;;;;31.28;23.52;102780.03;5990707;29;20239;-53
2021/08/24 13:25:22;;;;;;;3.17;2.55;;;;;;;28.90;26.57;102773.84;6000452;29;20239;-52
2021/08/24 13:28:48;;;;;;;3.25;2.90;;;;;;;31.47;22.15;102772.47;5991326;29;20750;-51
2021/08/24 13:32:26;;;;;;;3.35;2.10;;;;;;;33.08;21.95;102765.59;5997554;29;20326;-53
2021/08/24 13:35:59;;;;;;;3.03;2.72;;;;;;;35.30;18.58;102772.47;5998368;29;20823;-52
2021/08/24 13:39:20;;;;;;;3.10;2.53;;;;;;;31.02;22.56;102779.91;5991266;29;20242;-53
2021/08/24 13:42:46;;;;;;;4.40;2.45;;;;;;;32.81;20.28;102764.94;5997334;29;20250;-55
2021/08/24 13:46:07;;;;;;;3.30;2.45;;;;;;;35.42;17.84;102760.59;6005262;29;20243;-54
2021/08/24 13:49:29;;;;;;;2.92;2.35;;;;;;;37.11;16.37;102762.91;6002725;29;20323;-50
2021/08/24 13:53:00;;;;;;;3.20;2.75;;;;;;;36.42;17.29;102765.47;6001511;29;20222;-54
2021/08/24 13:56:31;;;;;;;2.88;2.63;;;;;;;35.78;17.09;102750.31;5996786;29;20685;-55
2021/08/24 13:59:55;;;;;;;2.90;2.60;;;;;;;34.52;17.48;102752.69;6002091;29;20330;-54
2021/08/24 14:03:18;;;;;;;2.90;2.38;;;;;;;33.63;17.99;102752.47;6001492;29;20515;-54
2021/08/24 14:06:43;;;;;;;2.90;2.60;;;;;;;34.09;19.91;102745.31;6001769;29;20235;-49
2021/08/24 14:10:18;;;;;;;3.15;2.55;;;;;;;34.24;18.22;102749.53;5992290;29;20582;-51
2021/08/24 14:13:40;;;;;;;6.47;2.50;;;;;;;33.68;18.12;102744.88;5989311;29;20243;-50
2021/08/24 14:17:01;;;;;;;4.25;3.10;;;;;;;33.01;18.63;102734.63;5997210;29;20236;-52
2021/08/24 14:20:26;;;;;;;3.47;2.45;;;;;;;31.92;19.81;102740.63;5994477;29;22025;-52
2021/08/24 14:23:52;;;;;;;2.92;2.72;;;;;;;31.02;19.72;102734.19;5990836;29;20239;-54
2021/08/24 14:27:17;;;;;;;5.68;3.20;;;;;;;31.39;21.35;102740.66;5995310;29;20244;-52
2021/08/24 14:30:38;;;;;;;3.85;2.65;;;;;;;29.37;22.47;102740.75;5998323;29;20251;-52
2021/08/24 14:34:15;;;;;;;2.75;2.47;;;;;;;30.23;24.01;102747.19;5999447;29;20618;-50
2021/08/24 14:37:47;;;;;;;3.60;3.15;;;;;;;29.36;23.14;102734.53;6000097;29;20258;-52
2021/08/24 14:41:14;;;;;;;2.80;2.60;;;;;;;29.18;23.72;102739.16;5997268;29;20326;-50
2021/08/24 14:44:38;;;;;;;4.07;3.30;;;;;;;28.84;25.62;102746.41;6003724;29;20629;-52
2021/08/24 14:48:02;;;;;;;4.00;3.28;;;;;;;28.25;23.73;102735.34;5994278;29;20236;-50
2021/08/24 14:51:23;;;;;;;5.88;2.97;;;;;;;28.20;25.14;102748.13;5990464;29;20906;-50
2021/08/24 14:54:53;;;;;;;2.90;2.60;;;;;;;28.46;25.34;102752.06;5998415;29;20318;-48
2021/08/24 14:58:19;;;;;;;3.42;3.13;;;;;;;28.16;25.88;102741.19;5995223;29;20641;-53
2021/08/24 15:02:02;;;;;;;4.93;2.90;;;;;;;28.07;25.41;102747.91;6001368;29;20527;-51
2021/08/24 15:05:32;;;;;;;4.35;2.70;;;;;;;28.10;24.93;102743.34;5997109;29;20242;-52
2021/08/24 15:08:53;;;;;;;4.57;3.00;;;;;;;28.52;25.90;102737.50;5992582;29;20231;-53
2021/08/24 15:12:20;;;;;;;2.58;2.35;;;;;;;28.41;26.27;102727.34;5996922;29;20227;-52
2021/08/24 15:15:41;;;;;;;3.30;2.85;;;;;;;28.81;25.10;102726.97;6001831;29;20259;-51
2021/08/24 15:19:05;;;;;;;3.53;3.22;;;;;;;28.46;24.55;102727.97;5996508;29;20236;-51
2021/08/24 15:22:30;;;;;;;2.50;2.30;;;;;;;28.39;26.41;102726.56;6001971;29;20259;-49
2021/08/24 15:26:04;;;;;;;2.80;2.60;;;;;;;27.89;24.47;102728.31;6000586;29;21408;-53
2021/08/24 15:29:29;;;;;;;2.85;2.58;;;;;;;28.07;25.34;102715.78;5998546;29;20243;-51
2021/08/24 15:32:51;;;;;;;4.28;2.55;;;;;;;27.74;25.71;102718.38;5999652;29;20275;-49
2021/08/24 15:36:13;;;;;;;2.65;2.40;;;;;;;27.70;26.30;102716.81;5988952;29;20553;-51
2021/08/24 15:39:36;;;;;;;2.78;2.38;;;;;;;27.96;26.56;102707.44;5994984;29;20271;-53
2021/08/24 15:42:57;;;;;;;2.67;2.38;;;;;;;27.73;27.31;102713.13;6000680;29;20642;-51
2021/08/24 15:46:18;;;;;;;3.15;2.53;;;;;;;28.12;26.70;102718.19;5986448;29;20247;-51
2021/08/24 15:49:39;;;;;;;2.90;2.40;;;;;;;27.83;26.52;102709.88;5992370;29;20258;-48
2021/08/24 15:53:01;;;;;;;2.67;2.03;;;;;;;27.67;26.39;102715.16;5986499;29;20254;-50
2021/08/24 15:56:24;;;;;;;3.42;3.08;;;;;;;27.85;26.09;102709.78;6001575;29;20243;-50